Time;durP1;ratioP1;P1;durP2;ratioP2;P2;SDS_P1;SDS_P2;PMS_P1;PMS_P2;Temp;Humidity;BMP_temperature;BMP_pressure;BME280_temperature;BME280_humidity;BME280_pressure;Samples;Min_cycle;Max_cycle;Signal;HPM_P1;HPM_P2
2023/08/05 00:00:43;;;;;;;0.20;0.20;;;;;;;;;;5032150;28;20061;-84
2023/08/05 00:03:08;;;;;;;0.10;0.10;;;;;;;;;;5032446;28;20338;-83
2023/08/05 00:05:33;;;;;;;0.20;0.20;;;;;;;;;;5031662;28;20119;-82
2023/08/05 00:07:59;;;;;;;0.20;0.20;;;;;;;16.75;nan;100248.38;5034186;28;20045;-83
2023/08/05 00:10:24;;;;;;;0.20;0.20;;;;;;;;;;5032861;28;20043;-83
2023/08/05 00:12:49;;;;;;;0.10;0.10;;;;;;;;;;5035067;28;20279;-83
2023/08/05 00:15:14;;;;;;;0.20;0.20;;;;;;;;;;5033333;28;20037;-83
2023/08/05 00:17:39;;;;;;;0.10;0.10;;;;;;;16.63;nan;100260.63;5031853;28;20237;-83
2023/08/05 00:20:05;;;;;;;0.10;0.10;;;;;;;;;;5034221;28;20552;-84
2023/08/05 00:22:30;;;;;;;0.20;0.20;;;;;;;;;;5029806;28;20273;-83
2023/08/05 00:24:55;;;;;;;0.10;0.10;;;;;;;;;;5033614;28;20029;-83
2023/08/05 00:27:21;;;;;;;0.20;0.20;;;;;;;;;;5033674;28;20522;-83
2023/08/05 00:29:49;;;;;;;0.20;0.20;;;;;;;;;;5031143;28;20355;-83
2023/08/05 00:32:14;;;;;;;0.20;0.20;;;;;;;16.31;nan;100236.25;5031942;28;20295;-83
2023/08/05 00:34:40;;;;;;;0.20;0.20;;;;;;;;;;5011098;28;20033;-83
2023/08/05 00:37:05;;;;;;;0.10;0.10;;;;;;;16.16;nan;100248.88;5030770;28;20500;-82
2023/08/05 00:39:31;;;;;;;0.20;0.20;;;;;;;;;;5016014;28;20104;-83
2023/08/05 00:41:59;;;;;;;0.20;0.20;;;;;;;;;;5008664;28;20040;-83
2023/08/05 00:44:24;;;;;;;0.13;0.13;;;;;;;;;;5005974;28;20065;-83
2023/08/05 00:46:50;;;;;;;0.20;0.20;;;;;;;;;;4996345;28;20069;-83
2023/08/05 00:49:15;;;;;;;0.13;0.13;;;;;;;;;;5001274;28;20044;-83
2023/08/05 00:51:41;;;;;;;0.20;0.20;;;;;;;;;;5040570;28;20041;-82
2023/08/05 00:54:06;;;;;;;0.10;0.10;;;;;;;;;;5027275;28;20030;-84
2023/08/05 00:56:32;;;;;;;0.10;0.10;;;;;;;;;;5031472;28;20038;-84
2023/08/05 00:58:57;;;;;;;0.20;0.20;;;;;;;;;;5014811;28;20042;-83
2023/08/05 01:01:22;;;;;;;0.20;0.20;;;;;;;;;;5026062;28;20041;-83
2023/08/05 01:03:47;;;;;;;0.20;0.20;;;;;;;;;;5015249;28;20046;-83
2023/08/05 01:06:14;;;;;;;0.20;0.20;;;;;;;;;;5017411;28;20029;-83
2023/08/05 01:08:39;;;;;;;0.20;0.20;;;;;;;;;;5030939;28;20060;-83
2023/08/05 01:11:05;;;;;;;0.20;0.20;;;;;;;;;;5031617;28;20033;-83
2023/08/05 01:13:30;;;;;;;0.17;0.17;;;;;;;;;;5031225;28;20124;-83
2023/08/05 01:15:56;;;;;;;0.17;0.17;;;;;;;;;;5032032;28;20066;-83
2023/08/05 01:18:23;;;;;;;0.10;0.10;;;;;;;;;;5029752;28;20494;-83
2023/08/05 01:20:50;;;;;;;0.20;0.20;;;;;;;;;;5033291;28;20264;-83
2023/08/05 01:23:28;;;;;;;0.20;0.20;;;;;;;;;;5031807;28;20254;-83
2023/08/05 01:25:53;;;;;;;0.20;0.20;;;;;;;;;;5035472;28;20037;-83
2023/08/05 01:28:19;;;;;;;0.20;0.20;;;;;;;;;;5030583;28;20048;-83
2023/08/05 01:30:47;;;;;;;0.20;0.20;;;;;;;;;;5030782;28;20045;-83
2023/08/05 01:33:14;;;;;;;0.20;0.20;;;;;;;;;;5020090;28;20048;-83
2023/08/05 01:35:39;;;;;;;0.15;0.15;;;;;;;;;;5030191;28;20339;-83
2023/08/05 01:38:04;;;;;;;0.20;0.20;;;;;;;14.81;nan;100245.13;5032320;28;20034;-83
2023/08/05 01:40:30;;;;;;;0.20;0.20;;;;;;;;;;5031049;28;20041;-83
2023/08/05 01:42:58;;;;;;;0.20;0.20;;;;;;;;;;5032062;28;20036;-83
2023/08/05 01:45:24;;;;;;;0.20;0.20;;;;;;;;;;5034000;28;20481;-83
2023/08/05 01:47:49;;;;;;;0.20;0.20;;;;;;;;;;5039009;28;20057;-83
2023/08/05 01:50:15;;;;;;;0.20;0.20;;;;;;;;;;5038841;28;20110;-83
2023/08/05 01:52:40;;;;;;;0.20;0.20;;;;;;;;;;5040649;28;20048;-83
2023/08/05 01:55:05;;;;;;;0.20;0.20;;;;;;;;;;5036344;28;20037;-83
2023/08/05 01:57:31;;;;;;;0.20;0.20;;;;;;;;;;5040152;28;20049;-83
2023/08/05 01:59:56;;;;;;;0.20;0.20;;;;;;;;;;5041930;28;20044;-83
2023/08/05 02:02:21;;;;;;;0.20;0.20;;;;;;;;;;5012174;28;20053;-83
2023/08/05 02:04:46;;;;;;;0.20;0.20;;;;;;;;;;5035396;28;20103;-83
2023/08/05 02:07:12;;;;;;;0.20;0.20;;;;;;;;;;5022073;28;20033;-83
2023/08/05 02:09:37;;;;;;;0.20;0.20;;;;;;;;;;5026414;28;20038;-84
2023/08/05 02:12:02;;;;;;;0.20;0.20;;;;;;;;;;5050038;28;20290;-84
2023/08/05 02:14:30;;;;;;;0.20;0.20;;;;;;;;;;5029173;28;20455;-83
2023/08/05 02:16:55;;;;;;;0.20;0.20;;;;;;;;;;5042471;28;20116;-84
2023/08/05 02:19:20;;;;;;;0.20;0.20;;;;;;;;;;5031335;28;20042;-83
2023/08/05 02:21:45;;;;;;;0.20;0.20;;;;;;;;;;5022504;28;20696;-83
2023/08/05 02:24:11;;;;;;;0.20;0.20;;;;;;;;;;5011766;28;20038;-83
2023/08/05 02:26:37;;;;;;;0.20;0.20;;;;;;;;;;5007963;28;20057;-83
2023/08/05 02:29:02;;;;;;;0.20;0.20;;;;;;;;;;5032301;28;20030;-83
2023/08/05 02:31:27;;;;;;;0.20;0.20;;;;;;;;;;5032852;28;20545;-83
2023/08/05 02:33:52;;;;;;;0.20;0.20;;;;;;;;;;5032694;28;20034;-83
2023/08/05 02:36:18;;;;;;;0.20;0.20;;;;;;;;;;5034085;28;20121;-83
2023/08/05 02:38:43;;;;;;;0.20;0.20;;;;;;;13.76;nan;100373.63;5034429;28;20272;-83
2023/08/05 02:41:08;;;;;;;0.20;0.20;;;;;;;;;;5032796;28;20054;-83
2023/08/05 02:43:33;;;;;;;0.20;0.20;;;;;;;;;;5031888;28;20041;-82
2023/08/05 02:45:59;;;;;;;0.20;0.20;;;;;;;;;;5033526;28;20057;-83
2023/08/05 02:48:24;;;;;;;0.20;0.20;;;;;;;;;;5032475;28;20038;-83
2023/08/05 02:50:50;;;;;;;0.20;0.20;;;;;;;;;;5029326;28;20174;-83
2023/08/05 02:53:19;;;;;;;0.20;0.20;;;;;;;;;;5032635;28;20495;-83
2023/08/05 02:55:44;;;;;;;0.20;0.20;;;;;;;;;;5032385;28;20060;-83
2023/08/05 02:58:10;;;;;;;0.20;0.20;;;;;;;13.69;nan;100239.81;5031167;28;20349;-83
2023/08/05 03:00:39;;;;;;;0.20;0.20;;;;;;;;;;5031763;28;20053;-83
2023/08/05 03:03:05;;;;;;;0.20;0.20;;;;;;;;;;5017503;28;20084;-83
2023/08/05 03:05:30;;;;;;;0.20;0.20;;;;;;;;;;5015093;28;20046;-83
2023/08/05 03:07:56;;;;;;;0.20;0.20;;;;;;;13.53;nan;100198.25;5031366;28;20125;-83
2023/08/05 03:10:21;;;;;;;0.20;0.20;;;;;;;;;;5031380;28;20630;-84
2023/08/05 03:12:47;;;;;;;0.20;0.20;;;;;;;;;;5014495;28;20108;-83
2023/08/05 03:15:15;;;;;;;0.20;0.20;;;;;;;;;;5012868;28;20060;-83
2023/08/05 03:17:40;;;;;;;0.17;0.17;;;;;;;;;;5032591;28;20276;-83
2023/08/05 03:20:05;;;;;;;;;;;;;;;;;;5016859;28;20221;-82
2023/08/05 03:22:31;;;;;;;0.20;0.20;;;;;;;;;;5021675;28;20010;-83
2023/08/05 03:24:56;;;;;;;0.20;0.20;;;;;;;;;;5025272;28;20042;-83
2023/08/05 03:27:21;;;;;;;0.20;0.20;;;;;;;;;;5027373;28;20072;-83
2023/08/05 03:29:47;;;;;;;0.20;0.20;;;;;;;;;;5018629;28;20498;-83
2023/08/05 03:32:12;;;;;;;0.20;0.20;;;;;;;;;;5034288;28;20033;-83
2023/08/05 03:34:37;;;;;;;0.20;0.20;;;;;;;;;;5027792;28;20061;-83
2023/08/05 03:37:03;;;;;;;0.20;0.20;;;;;;;;;;5014830;28;20089;-82
2023/08/05 03:39:28;;;;;;;;;;;;;;;;;;5018375;28;20280;-83
2023/08/05 03:41:53;;;;;;;;;;;;;;;;;;5031734;28;20051;-83
2023/08/05 03:44:19;;;;;;;0.20;0.20;;;;;;;;;;5030067;28;19927;-83
2023/08/05 03:46:45;;;;;;;0.20;0.20;;;;;;;;;;5027354;28;20034;-83
2023/08/05 03:49:10;;;;;;;0.20;0.20;;;;;;;;;;4998158;28;20116;-82
2023/08/05 03:51:35;;;;;;;0.28;0.28;;;;;;;;;;5031468;28;20061;-82
2023/08/05 03:54:00;;;;;;;;;;;;;;;;;;5036638;28;20045;-84
2023/08/05 03:56:27;;;;;;;0.20;0.20;;;;;;;;;;5032567;28;19967;-82
2023/08/05 03:58:56;;;;;;;0.20;0.20;;;;;;;;;;5031576;28;20525;-81
2023/08/05 04:01:22;;;;;;;0.20;0.20;;;;;;;;;;5034110;28;20044;-81
2023/08/05 04:03:50;;;;;;;0.20;0.20;;;;;;;;;;5032742;28;20034;-82
2023/08/05 04:06:16;;;;;;;0.20;0.20;;;;;;;;;;5031937;28;20045;-82
2023/08/05 04:08:42;;;;;;;0.20;0.20;;;;;;;;;;5031915;28;20495;-82
2023/08/05 04:11:08;;;;;;;0.20;0.20;;;;;;;;;;5033711;28;20044;-83
2023/08/05 04:13:34;;;;;;;;;;;;;;;;;;5032744;28;20030;-82
2023/08/05 04:16:03;;;;;;;0.20;0.20;;;;;;;;;;5032271;28;20293;-81
2023/08/05 04:18:34;;;;;;;0.20;0.20;;;;;;;12.93;nan;100286.56;5031603;28;20272;-82
2023/08/05 04:21:00;;;;;;;;;;;;;;;;;;5033449;28;20033;-82
2023/08/05 04:23:26;;;;;;;0.20;0.20;;;;;;;;;;5033346;28;19912;-82
2023/08/05 04:25:51;;;;;;;0.20;0.20;;;;;;;;;;5032341;28;20041;-82
2023/08/05 04:28:17;;;;;;;0.30;0.30;;;;;;;;;;5029752;28;20057;-83
2023/08/05 04:30:42;;;;;;;0.20;0.20;;;;;;;;;;5032067;28;20041;-82
2023/08/05 04:33:08;;;;;;;0.20;0.20;;;;;;;;;;5032907;28;20116;-83
2023/08/05 04:35:33;;;;;;;;;;;;;;;;;;5032751;28;20045;-84
2023/08/05 04:37:58;;;;;;;0.20;0.20;;;;;;;;;;5033217;28;19917;-82
2023/08/05 04:40:23;;;;;;;0.20;0.20;;;;;;;;;;5032139;28;20029;-83
2023/08/05 04:42:49;;;;;;;0.20;0.20;;;;;;;;;;5031896;28;20272;-81
2023/08/05 04:45:14;;;;;;;0.30;0.30;;;;;;;;;;5021644;28;20320;-83
2023/08/05 04:47:41;;;;;;;0.20;0.20;;;;;;;;;;5032831;28;20049;-83
2023/08/05 04:50:06;;;;;;;0.20;0.20;;;;;;;;;;5025046;28;20034;-83
2023/08/05 04:52:31;;;;;;;0.20;0.20;;;;;;;13.28;nan;100287.91;5033816;28;20036;-82
2023/08/05 04:55:06;;;;;;;0.20;0.20;;;;;;;;;;5026190;28;20030;-83
2023/08/05 04:57:31;;;;;;;;;;;;;;;;;;5012942;28;20558;-82
2023/08/05 04:59:56;;;;;;;0.20;0.20;;;;;;;;;;5010935;28;20399;-84
2023/08/05 05:02:22;;;;;;;;;;;;;;;;;;5030012;28;20041;-83
2023/08/05 05:04:47;;;;;;;0.20;0.20;;;;;;;;;;5034313;28;19988;-83
2023/08/05 05:07:12;;;;;;;0.20;0.20;;;;;;;;;;5036600;28;20036;-82
2023/08/05 05:09:38;;;;;;;0.20;0.20;;;;;;;;;;5017436;28;20038;-82
2023/08/05 05:12:03;;;;;;;0.13;0.13;;;;;;;;;;5037452;28;20287;-83
2023/08/05 05:14:31;;;;;;;0.20;0.20;;;;;;;;;;5036638;28;20033;-83
2023/08/05 05:16:56;;;;;;;0.20;0.20;;;;;;;;;;5035699;28;20026;-82
2023/08/05 05:19:21;;;;;;;0.20;0.20;;;;;;;;;;5037117;28;20035;-83
2023/08/05 05:21:47;;;;;;;0.20;0.20;;;;;;;;;;5036138;28;20084;-83
2023/08/05 05:24:12;;;;;;;0.20;0.20;;;;;;;;;;5037138;28;20832;-82
2023/08/05 05:26:37;;;;;;;0.20;0.20;;;;;;;;;;5034110;28;20304;-83
2023/08/05 05:29:02;;;;;;;0.23;0.23;;;;;;;;;;5033863;28;20112;-83
2023/08/05 05:31:28;;;;;;;0.20;0.20;;;;;;;;;;5033554;28;20096;-83
2023/08/05 05:33:53;;;;;;;0.20;0.20;;;;;;;;;;5033819;28;20032;-83
2023/08/05 05:36:18;;;;;;;0.20;0.20;;;;;;;;;;5032693;28;20095;-83
2023/08/05 05:38:43;;;;;;;0.20;0.20;;;;;;;;;;5033391;28;20056;-83
2023/08/05 05:41:09;;;;;;;0.10;0.10;;;;;;;;;;5033557;28;20037;-83
2023/08/05 05:43:35;;;;;;;0.20;0.20;;;;;;;;;;5032318;28;20288;-83
2023/08/05 05:46:00;;;;;;;0.20;0.20;;;;;;;16.44;nan;100283.53;5034022;28;20037;-83
2023/08/05 05:48:27;;;;;;;0.20;0.20;;;;;;;;;;5032054;28;20084;-83
2023/08/05 05:50:53;;;;;;;0.10;0.10;;;;;;;;;;5025598;28;20450;-83
2023/08/05 05:53:18;;;;;;;0.20;0.20;;;;;;;17.44;nan;100293.84;5032785;28;20056;-83
2023/08/05 05:55:46;;;;;;;0.20;0.20;;;;;;;17.75;nan;100286.06;5033183;28;20045;-83
2023/08/05 05:58:12;;;;;;;0.20;0.20;;;;;;;;;;5030245;28;20072;-83
2023/08/05 06:00:39;;;;;;;0.17;0.17;;;;;;;18.33;nan;100296.16;5014934;28;20045;-83
2023/08/05 06:03:04;;;;;;;0.10;0.10;;;;;;;;;;5017026;28;20061;-83
2023/08/05 06:05:30;;;;;;;0.10;0.10;;;;;;;18.81;nan;100300.41;5021485;28;20041;-83
2023/08/05 06:07:55;;;;;;;0.10;0.10;;;;;;;;;;4995014;28;20049;-84
2023/08/05 06:10:20;;;;;;;0.10;0.10;;;;;;;19.25;nan;100307.63;5028781;28;20033;-83
2023/08/05 06:12:46;;;;;;;;;;;;;;;19.52;nan;100307.47;5031021;28;20288;-84
2023/08/05 06:15:11;;;;;;;;;;;;;;;19.65;nan;100299.34;5031430;28;19921;-83
2023/08/05 06:17:36;;;;;;;;;;;;;;;19.84;nan;100305.63;5022464;28;19957;-83
2023/08/05 06:20:03;;;;;;;0.10;0.10;;;;;;;;;;5011670;28;19913;-83
2023/08/05 06:22:28;;;;;;;;;;;;;;;20.28;nan;100305.69;5027242;28;20034;-84
2023/08/05 06:24:54;;;;;;;;;;;;;;;20.44;nan;100315.84;5031939;28;20288;-83
2023/08/05 06:27:19;;;;;;;;;;;;;;;20.58;nan;100306.63;5027435;28;19937;-84
2023/08/05 06:29:44;;;;;;;;;;;;;;;20.90;nan;100314.53;5026580;28;20283;-83
2023/08/05 06:32:09;;;;;;;;;;;;;;;21.17;nan;100295.41;5028815;28;19932;-83
2023/08/05 06:34:34;;;;;;;;;;;;;;;21.26;nan;100301.28;5031326;28;19971;-83
2023/08/05 06:36:59;;;;;;;;;;;;;;;21.37;nan;100309.41;5031842;28;19917;-83
2023/08/05 06:39:25;;;;;;;;;;;;;;;21.60;nan;100303.31;5032381;28;19913;-83
2023/08/05 06:41:50;;;;;;;;;;;;;;;21.71;nan;100308.94;5032285;28;19928;-83
2023/08/05 06:44:15;;;;;;;;;;;;;;;21.85;nan;100310.38;5032418;28;20004;-84
2023/08/05 06:46:41;;;;;;;;;;;;;;;22.01;nan;100306.19;5015643;28;20365;-84
2023/08/05 06:49:06;;;;;;;;;;;;;;;22.17;nan;100280.47;5031238;28;19913;-83
2023/08/05 06:51:32;;;;;;;;;;;;;;;22.22;nan;100299.44;5031225;28;19913;-84
2023/08/05 06:53:57;;;;;;;;;;;;;;;22.12;nan;100270.38;5031151;28;19917;-84
2023/08/05 06:56:22;;;;;;;;;;;;;;;22.28;nan;100298.50;5035217;28;19921;-84
2023/08/05 06:58:48;;;;;;;;;;;;;;;22.58;nan;100303.75;5036710;28;19924;-84
2023/08/05 07:01:15;;;;;;;;;;;;;;;22.92;nan;100298.53;5034786;28;20285;-84
2023/08/05 07:03:41;;;;;;;;;;;;;;;23.22;nan;100309.13;5035019;28;19928;-84
2023/08/05 07:06:07;;;;;;;;;;;;;;;23.42;nan;100302.47;5037172;28;19913;-84
2023/08/05 07:08:32;;;;;;;;;;;;;;;23.26;nan;100290.56;5034972;28;20088;-84
2023/08/05 07:10:58;;;;;;;;;;;;;;;23.49;nan;100297.75;5033581;28;19952;-83
2023/08/05 07:13:24;;;;;;;;;;;;;;;23.74;nan;100311.72;5026155;28;20000;-84
2023/08/05 07:15:49;;;;;;;;;;;;;;;;;;5036201;28;19920;-84
2023/08/05 07:18:14;;;;;;;;;;;;;;;24.42;nan;100295.47;5032568;28;19979;-84
2023/08/05 07:20:40;;;;;;;;;;;;;;;24.68;nan;100293.94;5034355;28;19917;-82
2023/08/05 07:23:05;;;;;;;;;;;;;;;24.80;nan;100302.75;5030070;28;19979;-82
2023/08/05 07:25:30;;;;;;;;;;;;;;;24.93;nan;100287.19;5023282;28;20286;-84
2023/08/05 07:27:55;;;;;;;;;;;;;;;24.84;nan;100288.72;5033816;28;19913;-82
2023/08/05 07:30:21;;;;;;;;;;;;;;;24.71;nan;100290.72;5033511;28;20370;-82
2023/08/05 07:32:46;;;;;;;;;;;;;;;24.90;nan;100282.31;5029363;28;19924;-84
2023/08/05 07:35:13;;;;;;;;;;;;;;;25.00;nan;100283.25;5023727;28;20355;-84
2023/08/05 07:37:38;;;;;;;;;;;;;;;25.17;nan;100280.50;5025987;28;20398;-84
2023/08/05 07:40:05;;;;;;;;;;;;;;;25.31;nan;100275.47;5019007;28;20020;-84
2023/08/05 07:42:30;;;;;;;;;;;;;;;25.29;nan;100276.78;5019199;28;20280;-82
2023/08/05 07:44:57;;;;;;;;;;;;;;;25.49;nan;100281.59;5037374;28;19921;-83
2023/08/05 07:47:22;;;;;;;;;;;;;;;25.51;nan;100274.03;5025654;28;19918;-82
2023/08/05 07:49:48;;;;;;;;;;;;;;;25.51;nan;100274.03;5037058;28;20390;-85
2023/08/05 07:52:13;;;;;;;;;;;;;;;25.80;nan;100277.25;5029319;28;19969;-84
2023/08/05 07:54:39;;;;;;;;;;;;;;;26.13;nan;100280.78;5016996;28;19947;-83
2023/08/05 07:57:04;;;;;;;;;;;;;;;26.45;nan;100284.22;5035399;28;19913;-83
2023/08/05 07:59:30;;;;;;;;;;;;;;;26.55;nan;100282.66;5036524;28;20398;-82
2023/08/05 08:01:56;;;;;;;;;;;;;;;26.43;nan;100280.97;5036294;28;19912;-84
2023/08/05 08:04:21;;;;;;;;;;;;;;;26.61;nan;100293.28;5030891;28;19917;-82
2023/08/05 08:06:47;;;;;;;;;;;;;;;26.83;nan;100290.38;5016043;28;19914;-82
2023/08/05 08:09:13;;;;;;;;;;;;;;;27.03;nan;100288.81;5014450;28;20454;-82
2023/08/05 08:11:38;;;;;;;;;;;;;;;27.03;nan;100300.50;5033018;28;19924;-82
2023/08/05 08:14:04;;;;;;;;;;;;;;;27.08;nan;100297.00;5025254;28;20359;-82
2023/08/05 08:16:29;;;;;;;;;;;;;;;27.48;nan;100296.28;5032632;28;19913;-82
2023/08/05 08:18:55;;;;;;;;;;;;;;;27.96;nan;100296.06;5032078;28;19913;-82
2023/08/05 08:21:20;;;;;;;;;;;;;;;28.36;nan;100299.78;5035149;28;19916;-82
2023/08/05 08:23:45;;;;;;;;;;;;;;;28.61;nan;100295.41;5033196;28;19913;-82
2023/08/05 08:26:10;;;;;;;;;;;;;;;28.16;nan;100290.56;5032693;28;19913;-83
2023/08/05 08:28:35;;;;;;;;;;;;;;;27.99;nan;100289.25;5033497;28;19913;-82
2023/08/05 08:31:00;;;;;;;;;;;;;;;28.26;nan;100289.75;5032210;28;19917;-82
2023/08/05 08:33:26;;;;;;;;;;;;;;;28.77;nan;100284.19;5033134;28;19917;-84
2023/08/05 08:35:51;;;;;;;;;;;;;;;29.34;nan;100286.59;5034454;28;20412;-83
2023/08/05 08:38:17;;;;;;;;;;;;;;;29.87;nan;100281.31;5032797;28;20016;-83
2023/08/05 08:40:49;;;;;;;;;;;;;;;30.24;nan;100282.56;5031824;28;19913;-83
2023/08/05 08:43:16;;;;;;;;;;;;;;;30.56;nan;100279.25;5031909;28;19913;-84
2023/08/05 08:45:42;;;;;;;;;;;;;;;30.83;nan;100288.75;5032012;28;19925;-83
2023/08/05 08:48:09;;;;;;;;;;;;;;;31.12;nan;100280.44;5031778;28;19920;-83
2023/08/05 08:50:35;;;;;;;;;;;;;;;31.50;nan;100264.84;5033100;28;20047;-83
2023/08/05 08:53:01;;;;;;;;;;;;;;;31.97;nan;100262.19;5032863;28;19956;-83
2023/08/05 08:55:27;;;;;;;;;;;;;;;32.17;nan;100271.94;5022723;28;19924;-83
2023/08/05 08:57:52;;;;;;;;;;;;;;;32.43;nan;100274.16;5029578;28;20345;-83
2023/08/05 09:00:17;;;;;;;;;;;;;;;32.38;nan;100278.63;5027390;28;19914;-83
2023/08/05 09:02:43;;;;;;;;;;;;;;;31.45;nan;100272.34;5024804;28;20543;-83
2023/08/05 09:05:09;;;;;;;;;;;;;;;31.23;nan;100273.75;5029394;28;19920;-83
2023/08/05 09:07:35;;;;;;;;;;;;;;;31.46;nan;100269.31;5032335;28;19960;-83
2023/08/05 09:10:04;;;;;;;;;;;;;;;31.63;nan;100259.72;5017785;28;19957;-83
2023/08/05 09:12:31;;;;;;;;;;;;;;;31.99;nan;100259.97;5025167;28;19983;-83
2023/08/05 09:14:57;;;;;;;;;;;;;;;32.28;nan;100262.41;5031466;28;19917;-83
2023/08/05 09:17:22;;;;;;;;;;;;;;;32.34;nan;100250.25;5025785;28;19940;-83
2023/08/05 09:19:47;;;;;;;;;;;;;;;32.70;nan;100245.97;5030626;28;19921;-84
2023/08/05 09:22:12;;;;;;;;;;;;;;;32.70;nan;100241.31;5031408;28;19997;-84
2023/08/05 09:24:37;;;;;;;;;;;;;;;32.62;nan;100236.56;5015950;28;20153;-84
2023/08/05 09:27:03;;;;;;;;;;;;;;;32.80;nan;100243.03;5026850;28;19923;-83
2023/08/05 09:29:28;;;;;;;;;;;;;;;32.56;nan;100243.25;5031866;28;19920;-83
2023/08/05 09:31:54;;;;;;;;;;;;;;;32.36;nan;100241.72;5027735;28;19914;-83
2023/08/05 09:34:19;;;;;;;;;;;;;;;32.06;nan;100251.34;5031578;28;20000;-83
2023/08/05 09:36:45;;;;;;;;;;;;;;;32.17;nan;100244.56;5035143;28;19940;-83
2023/08/05 09:39:13;;;;;;;;;;;;;;;33.00;nan;100250.78;5036057;28;20001;-84
2023/08/05 09:41:39;;;;;;;;;;;;;;;33.12;nan;100253.00;5028395;28;20477;-83
2023/08/05 09:44:08;;;;;;;;;;;;;;;33.39;nan;100241.09;5036090;28;20005;-83
2023/08/05 09:46:37;;;;;;;;;;;;;;;33.80;nan;100250.25;5034737;28;19920;-83
2023/08/05 09:49:04;;;;;;;;;;;;;;;34.10;nan;100236.88;5019263;28;19917;-84
2023/08/05 09:51:30;;;;;;;;;;;;;;;34.23;nan;100253.25;5026999;28;20130;-83
2023/08/05 09:53:55;;;;;;;;;;;;;;;34.30;nan;100235.50;5032847;28;20000;-83
2023/08/05 09:56:20;;;;;;;;;;;;;;;34.50;nan;100214.91;5029077;28;19967;-84
2023/08/05 09:58:47;;;;;;;;;;;;;;;34.88;nan;100206.88;5021317;28;19940;-85
2023/08/05 10:01:13;;;;;;;;;;;;;;;34.79;nan;100209.63;5031734;28;19925;-84
2023/08/05 10:03:39;;;;;;;;;;;;;;;34.80;nan;100208.50;5031258;28;20286;-85
2023/08/05 10:06:11;;;;;;;;;;;;;;;34.83;nan;100212.53;5032117;28;19940;-84
2023/08/05 10:08:36;;;;;;;;;;;;;;;35.02;nan;100202.03;5030642;28;19917;-84
2023/08/05 10:11:02;;;;;;;;;;;;;;;35.21;nan;100206.41;5030424;28;19921;-81
2023/08/05 10:13:29;;;;;;;;;;;;;;;34.84;nan;100192.16;5026429;28;19960;-81
2023/08/05 10:15:54;;;;;;;;;;;;;;;35.19;nan;100189.44;5032300;28;20035;-80
2023/08/05 10:18:20;;;;;;;;;;;;;;;35.23;nan;100195.88;5031877;28;19925;-81
2023/08/05 10:20:50;;;;;;;;;;;;;;;34.75;nan;100181.16;5034288;28;19921;-81
2023/08/05 10:23:16;;;;;;;;;;;;;;;33.22;nan;100181.50;5028963;28;19921;-81
2023/08/05 10:25:42;;;;;;;;;;;;;;;32.85;nan;100173.66;5029910;28;19944;-81
2023/08/05 10:28:08;;;;;;;;;;;;;;;33.76;nan;100176.06;5026188;28;19927;-80
2023/08/05 10:30:41;;;;;;;;;;;;;;;34.76;nan;100171.00;5033100;28;19967;-80
2023/08/05 10:33:06;;;;;;;;;;;;;;;34.95;nan;100168.75;5036794;28;19917;-80
2023/08/05 10:35:41;;;;;;;;;;;;;;;35.76;nan;100163.59;5035921;28;19954;-81
2023/08/05 10:38:22;;;;;;;;;;;;;;;36.13;nan;100161.97;5037000;28;20060;-81
2023/08/05 10:41:12;;;;;;;;;;;;;;;36.53;nan;100169.78;5033150;28;19939;-80
2023/08/05 10:43:38;;;;;;;;;;;;;;;36.73;nan;100168.19;5034481;28;19984;-81
2023/08/05 10:46:06;;;;;;;;;;;;;;;36.99;nan;100174.31;5035147;28;19956;-81
2023/08/05 10:48:33;;;;;;;;;;;;;;;37.32;nan;100161.69;5036181;28;19980;-81
2023/08/05 10:51:02;;;;;;;;;;;;;;;37.57;nan;100157.84;5032331;28;19943;-81
2023/08/05 10:53:28;;;;;;;;;;;;;;;37.62;nan;100159.59;5036177;28;20412;-80
2023/08/05 10:55:54;;;;;;;;;;;;;;;37.56;nan;100149.91;5030919;28;19917;-80
2023/08/05 10:58:29;;;;;;;;;;;;;;;37.22;nan;100145.56;5028800;28;20452;-82
2023/08/05 11:00:58;;;;;;;;;;;;;;;37.38;nan;100147.34;5037516;28;19917;-81
2023/08/05 11:03:31;;;;;;;;;;;;;;;37.41;nan;100152.16;5033377;28;20393;-81
2023/08/05 11:06:00;;;;;;;;;;;;;;;37.77;nan;100141.53;5032662;28;19963;-80
2023/08/05 11:08:26;;;;;;;;;;;;;;;37.94;nan;100141.28;5035788;28;20382;-82
2023/08/05 11:10:51;;;;;;;;;;;;;;;38.04;nan;100148.31;5034495;28;20008;-82
2023/08/05 11:13:17;;;;;;;;;;;;;;;38.27;nan;100125.75;5036088;28;19952;-81
2023/08/05 11:15:42;;;;;;;;;;;;;;;38.46;nan;100137.00;5035551;28;19917;-81
2023/08/05 11:18:07;;;;;;;;;;;;;;;38.42;nan;100134.09;5036236;28;19913;-82
2023/08/05 11:20:33;;;;;;;;;;;;;;;36.72;nan;100128.03;5034939;28;19956;-80
2023/08/05 11:22:59;;;;;;;;;;;;;;;34.58;nan;100120.72;5026506;28;19925;-80
2023/08/05 11:25:24;;;;;;;;;;;;;;;33.25;nan;100121.72;5035708;28;20023;-80
2023/08/05 11:27:52;;;;;;;;;;;;;;;34.31;nan;100116.34;5031800;28;20012;-81
2023/08/05 11:30:18;;;;;;;;;;;;;;;35.62;nan;100120.59;5030932;28;19940;-79
2023/08/05 11:32:50;;;;;;;;;;;;;;;36.72;nan;100123.31;5038910;28;19913;-81
2023/08/05 11:35:15;;;;;;;;;;;;;;;37.91;nan;100116.34;5039041;28;19921;-81
2023/08/05 11:37:40;;;;;;;;;;;;;;;38.55;nan;100117.53;5037526;28;19920;-81
2023/08/05 11:40:06;;;;;;;;;;;;;;;39.15;nan;100106.56;5036880;28;19967;-80
2023/08/05 11:42:31;;;;;;;;;;;;;;;38.07;nan;100103.47;5035390;28;19939;-81
2023/08/05 11:44:56;;;;;;;;;;;;;;;35.14;nan;100088.72;5036663;28;19917;-81
2023/08/05 11:47:21;;;;;;;;;;;;;;;32.84;nan;100095.34;5040675;28;19959;-81
2023/08/05 11:49:50;;;;;;;;;;;;;;;31.62;nan;100086.72;5038396;28;19920;-81
2023/08/05 11:52:15;;;;;;;;;;;;;;;31.06;nan;100080.34;5034428;28;19917;-81
2023/08/05 11:54:42;;;;;;;;;;;;;;;31.80;nan;100076.81;5033577;28;19946;-82
2023/08/05 11:57:18;;;;;;;;;;;;;;;33.69;nan;100079.72;5028120;28;19924;-82
2023/08/05 11:59:44;;;;;;;;;;;;;;;35.04;nan;100078.03;5032408;28;20011;-80
2023/08/05 12:02:11;;;;;;;;;;;;;;;35.98;nan;100068.94;5031723;28;19942;-80
2023/08/05 12:04:42;;;;;;;;;;;;;;;35.43;nan;100060.47;5033326;28;19927;-80
2023/08/05 12:07:12;;;;;;;;;;;;;;;35.43;nan;100056.94;5028552;28;19931;-79
2023/08/05 12:09:37;;;;;;;;;;;;;;;35.77;nan;100060.66;5032492;28;19945;-80
2023/08/05 12:12:02;;;;;;;;;;;;;;;35.69;nan;100060.38;5026693;28;20398;-81
2023/08/05 12:14:27;;;;;;;;;;;;;;;35.50;nan;100057.22;5031726;28;20314;-81
2023/08/05 12:16:59;;;;;;;;;;;;;;;34.33;nan;100042.75;5035144;28;20000;-81
2023/08/05 12:19:25;;;;;;;;;;;;;;;33.91;nan;100045.09;5027025;28;19975;-81
2023/08/05 12:21:50;;;;;;;;;;;;;;;33.75;nan;100039.22;5034754;28;19924;-80
2023/08/05 12:24:15;;;;;;;;;;;;;;;33.29;nan;100033.09;5030920;28;20325;-82
2023/08/05 12:26:40;;;;;;;;;;;;;;;32.40;nan;100034.78;5036012;28;19917;-82
2023/08/05 12:29:05;;;;;;;;;;;;;;;31.88;nan;100023.34;5029384;28;19956;-86
2023/08/05 12:31:32;;;;;;;;;;;;;;;31.73;nan;100028.00;5029408;28;19967;-85
2023/08/05 12:33:57;;;;;;;;;;;;;;;31.45;nan;100029.94;5029423;28;20303;-85
2023/08/05 12:36:23;;;;;;;;;;;;;;;31.40;nan;100019.13;5026217;28;19925;-85
2023/08/05 12:38:52;;;;;;;;;;;;;;;31.36;nan;100020.81;5029406;28;19917;-86
2023/08/05 12:41:17;;;;;;;;;;;;;;;31.07;nan;100010.97;5026354;28;19920;-85
2023/08/05 12:43:42;;;;;;;;;;;;;;;30.61;nan;100003.56;5030219;28;19939;-86
2023/08/05 12:46:07;;;;;;;;;;;;;;;30.16;nan;100002.34;5024878;28;19917;-86
2023/08/05 12:48:32;;;;;;;;;;;;;;;29.60;nan;99984.78;5026860;28;20062;-85
2023/08/05 12:50:58;;;;;;;;;;;;;;;29.33;nan;99980.75;5030593;28;20197;-85
2023/08/05 12:53:23;;;;;;;;;;;;;;;29.27;nan;99973.75;5027985;28;19917;-84
2023/08/05 12:55:48;;;;;;;;;;;;;;;28.99;nan;99973.47;5031853;28;19979;-85
2023/08/05 12:58:13;;;;;;;;;;;;;;;28.71;nan;99975.09;5030416;28;19917;-85
2023/08/05 13:00:38;;;;;;;;;;;;;;;28.24;nan;99975.72;5030540;28;19924;-84
2023/08/05 13:03:03;;;;;;;;;;;;;;;27.67;nan;99978.75;5031376;28;19917;-84
2023/08/05 13:05:29;;;;;;;;;;;;;;;27.16;nan;99973.47;5028987;28;19924;-84
2023/08/05 13:07:54;;;;;;;;;;;;;;;26.69;nan;99963.75;5027396;28;20315;-84
2023/08/05 13:10:19;;;;;;;;;;;;;;;26.21;nan;99980.25;5026606;28;20020;-85
2023/08/05 13:12:44;;;;;;;;;;;;;;;25.55;nan;99971.91;5019636;28;20338;-85
2023/08/05 13:15:09;;;;;;;;;;;;;;;24.39;nan;99960.84;5026838;28;20374;-85
2023/08/05 13:17:34;;;;;;;;;;;;;;;23.79;nan;99967.25;5029750;28;19956;-84
2023/08/05 13:20:00;;;;;;;;;;;;;;;23.77;nan;99959.44;5028367;28;19925;-84
2023/08/05 13:22:25;;;;;;;;;;;;;;;23.83;nan;99947.59;5028414;28;20017;-84
2023/08/05 13:24:50;;;;;;;;;;;;;;;23.57;nan;99956.44;5029164;28;19917;-84
2023/08/05 13:27:17;;;;;;;;;;;;;;;23.45;nan;99965.47;5027710;28;19917;-84
2023/08/05 13:29:42;;;;;;;;;;;;;;;23.10;nan;99950.47;5026697;28;21506;-87